Time,TemperatureF,DewpointF,PressureIn,WindDirection,WindDirectionDegrees,WindSpeedMPH,WindSpeedGustMPH,Humidity,HourlyPrecipIn,Conditions,Clouds,dailyrainin,SoftwareType,DateUTC
2013-10-12 00:13:00,70.0,-99.9,-100.00,SSE,155,7.0,8.0,-999,0.00,,,0.00,,2013-10-12 05:13:00,
2013-10-12 00:23:00,70.0,-99.9,-100.00,SSE,155,7.0,8.0,-999,0.00,,,0.00,,2013-10-12 05:23:00,
2013-10-12 00:43:00,69.0,-99.9,-100.00,SSE,151,7.0,8.0,-999,0.00,,,0.00,,2013-10-12 05:43:00,
2013-10-12 00:52:00,69.0,-99.9,-100.00,SSE,151,7.0,8.0,-999,0.00,,,0.00,,2013-10-12 05:52:00,
2013-10-12 01:12:00,69.0,-99.9,-100.00,SSE,154,6.0,8.0,-999,0.00,,,0.00,,2013-10-12 06:12:00,
2013-10-12 01:22:00,69.0,-99.9,-100.00,SSE,154,6.0,8.0,-999,0.00,,,0.00,,2013-10-12 06:22:00,
2013-10-12 01:42:00,69.0,-99.9,-100.00,SSE,154,6.0,8.0,-999,0.00,,,0.00,,2013-10-12 06:42:00,
2013-10-12 01:52:00,69.0,-99.9,-100.00,SSE,154,6.0,8.0,-999,0.00,,,0.00,,2013-10-12 06:52:00,
2013-10-12 02:12:00,69.0,-99.9,-100.00,SSE,152,5.0,6.0,-999,0.00,,,0.00,,2013-10-12 07:12:00,
2013-10-12 02:22:00,69.0,-99.9,-100.00,SSE,152,5.0,6.0,-999,0.00,,,0.00,,2013-10-12 07:22:00,
2013-10-12 02:42:00,68.0,-99.9,-100.00,South,174,3.0,5.0,-999,0.00,,,0.00,,2013-10-12 07:42:00,
2013-10-12 02:52:00,68.0,-99.9,-100.00,South,174,3.0,5.0,-999,0.00,,,0.00,,2013-10-12 07:52:00,
2013-10-12 03:12:00,68.0,-99.9,-100.00,SSE,154,5.0,8.0,-999,0.00,,,0.00,,2013-10-12 08:12:00,
2013-10-12 03:23:00,68.0,-99.9,-100.00,SSE,154,5.0,8.0,-999,0.00,,,0.00,,2013-10-12 08:23:00,
2013-10-12 03:43:00,68.0,-99.9,-100.00,SSE,165,4.0,7.0,-999,0.00,,,0.00,,2013-10-12 08:43:00,
2013-10-12 03:52:00,68.0,-99.9,-100.00,SSE,165,4.0,7.0,-999,0.00,,,0.00,,2013-10-12 08:52:00,
2013-10-12 04:11:00,68.0,-99.9,-100.00,South,169,4.0,7.0,-999,0.00,,,0.00,,2013-10-12 09:11:00,
2013-10-12 04:22:00,68.0,-99.9,-100.00,South,169,4.0,7.0,-999,0.00,,,0.00,,2013-10-12 09:22:00,
2013-10-12 04:43:00,67.0,-99.9,-100.00,SSE,162,3.0,5.0,-999,0.00,,,0.00,,2013-10-12 09:43:00,
2013-10-12 04:54:00,67.0,-99.9,-100.00,SSE,162,3.0,5.0,-999,0.00,,,0.00,,2013-10-12 09:54:00,
2013-10-12 05:12:00,67.0,-99.9,-100.00,SSE,162,4.0,7.0,-999,0.00,,,0.00,,2013-10-12 10:12:00,
2013-10-12 05:23:00,67.0,-99.9,-100.00,SSE,162,4.0,7.0,-999,0.00,,,0.00,,2013-10-12 10:23:00,
2013-10-12 05:42:00,66.0,-99.9,-100.00,SSE,151,7.0,9.0,-999,0.00,,,0.00,,2013-10-12 10:42:00,
2013-10-12 05:53:00,66.0,-99.9,-100.00,SSE,151,7.0,9.0,-999,0.00,,,0.00,,2013-10-12 10:53:00,
2013-10-12 06:12:00,66.0,-99.9,-100.00,SSW,201,3.0,5.0,-999,0.00,,,0.00,,2013-10-12 11:12:00,
2013-10-12 06:22:00,66.0,-99.9,-100.00,SSW,201,3.0,5.0,-999,0.00,,,0.00,,2013-10-12 11:22:00,
2013-10-12 06:43:00,66.0,-99.9,-100.00,SSW,206,1.0,3.0,-999,0.00,,,0.00,,2013-10-12 11:43:00,
2013-10-12 06:53:00,66.0,-99.9,-100.00,SSW,206,1.0,3.0,-999,0.00,,,0.00,,2013-10-12 11:53:00,
2013-10-12 07:12:00,65.0,-99.9,-100.00,SE,145,2.0,4.0,-999,0.00,,,0.00,,2013-10-12 12:12:00,
2013-10-12 07:22:00,65.0,-99.9,-100.00,SE,145,2.0,4.0,-999,0.00,,,0.00,,2013-10-12 12:22:00,
2013-10-12 07:42:00,65.0,-99.9,-100.00,SE,143,2.0,4.0,-999,0.00,,,0.00,,2013-10-12 12:42:00,
2013-10-12 07:52:00,65.0,-99.9,-100.00,SE,143,2.0,4.0,-999,0.00,,,0.00,,2013-10-12 12:52:00,
2013-10-12 08:11:00,65.0,-99.9,-100.00,SW,227,2.0,4.0,-999,0.00,,,0.00,,2013-10-12 13:11:00,
2013-10-12 08:22:00,65.0,-99.9,-100.00,SW,227,2.0,4.0,-999,0.00,,,0.00,,2013-10-12 13:22:00,
2013-10-12 08:42:00,64.0,-99.9,-100.00,West,265,4.0,7.0,-999,0.00,,,0.00,,2013-10-12 13:42:00,
2013-10-12 09:12:00,62.0,-99.9,-100.00,NW,305,2.0,4.0,-999,0.00,,,0.00,,2013-10-12 14:12:00,
2013-10-12 09:22:00,62.0,-99.9,-100.00,NW,305,2.0,4.0,-999,0.00,,,0.00,,2013-10-12 14:22:00,
2013-10-12 09:42:00,61.0,-99.9,-100.00,NW,309,6.0,9.0,-999,0.00,,,0.00,,2013-10-12 14:42:00,
2013-10-12 09:52:00,61.0,-99.9,-100.00,NW,309,6.0,9.0,-999,0.00,,,0.00,,2013-10-12 14:52:00,
2013-10-12 10:11:00,60.0,-99.9,-100.00,NW,315,4.0,8.0,-999,0.00,,,0.00,,2013-10-12 15:11:00,
2013-10-12 10:22:00,60.0,-99.9,-100.00,NW,315,4.0,8.0,-999,0.00,,,0.00,,2013-10-12 15:22:00,
2013-10-12 10:44:00,63.0,-99.9,-100.00,WNW,300,5.0,8.0,-999,0.00,,,0.00,,2013-10-12 15:44:00,
2013-10-12 10:54:00,63.0,-99.9,-100.00,WNW,300,5.0,8.0,-999,0.00,,,0.00,,2013-10-12 15:54:00,
2013-10-12 11:13:00,65.0,-99.9,-100.00,NW,309,5.0,8.0,-999,0.00,,,0.00,,2013-10-12 16:13:00,
2013-10-12 11:23:00,65.0,-99.9,-100.00,NW,309,5.0,8.0,-999,0.00,,,0.00,,2013-10-12 16:23:00,
2013-10-12 11:43:00,66.0,-99.9,-100.00,WNW,292,3.0,8.0,-999,0.00,,,0.00,,2013-10-12 16:43:00,
2013-10-12 11:53:00,66.0,-99.9,-100.00,WNW,292,3.0,8.0,-999,0.00,,,0.00,,2013-10-12 16:53:00,
2013-10-12 12:13:00,66.0,-99.9,-100.00,NW,312,6.0,12.0,-999,0.00,,,0.00,,2013-10-12 17:13:00,
2013-10-12 12:23:00,66.0,-99.9,-100.00,NW,312,6.0,12.0,-999,0.00,,,0.00,,2013-10-12 17:23:00,
2013-10-12 12:42:00,68.0,-99.9,-100.00,WNW,303,3.0,7.0,-999,0.00,,,0.00,,2013-10-12 17:42:00,
2013-10-12 13:12:00,69.0,-99.9,-100.00,WNW,291,2.0,5.0,-999,0.00,,,0.00,,2013-10-12 18:12:00,
2013-10-12 13:22:00,69.0,-99.9,-100.00,WNW,291,2.0,5.0,-999,0.00,,,0.00,,2013-10-12 18:22:00,
2013-10-12 13:42:00,70.0,-99.9,-100.00,WNW,298,3.0,4.0,-999,0.00,,,0.00,,2013-10-12 18:42:00,
2013-10-12 13:52:00,70.0,-99.9,-100.00,WNW,298,3.0,4.0,-999,0.00,,,0.00,,2013-10-12 18:52:00,
2013-10-12 14:11:00,70.0,-99.9,-100.00,West,272,3.0,6.0,-999,0.00,,,0.00,,2013-10-12 19:11:00,
2013-10-12 14:22:00,70.0,-99.9,-100.00,West,272,3.0,6.0,-999,0.00,,,0.00,,2013-10-12 19:22:00,
2013-10-12 14:42:00,71.0,-99.9,-100.00,NW,307,3.0,9.0,-999,0.00,,,0.00,,2013-10-12 19:42:00,
2013-10-12 14:52:00,71.0,-99.9,-100.00,NW,307,3.0,9.0,-999,0.00,,,0.00,,2013-10-12 19:52:00,
2013-10-12 15:12:00,71.0,-99.9,-100.00,West,268,4.0,11.0,-999,0.00,,,0.00,,2013-10-12 20:12:00,
2013-10-12 15:22:00,71.0,-99.9,-100.00,West,268,4.0,11.0,-999,0.00,,,0.00,,2013-10-12 20:22:00,
2013-10-12 15:43:00,72.0,-99.9,-100.00,West,269,3.0,5.0,-999,0.00,,,0.00,,2013-10-12 20:43:00,
2013-10-12 15:52:00,72.0,-99.9,-100.00,West,269,3.0,5.0,-999,0.00,,,0.00,,2013-10-12 20:52:00,
2013-10-12 16:11:00,72.0,-99.9,-100.00,West,270,2.0,5.0,-999,0.00,,,0.00,,2013-10-12 21:11:00,
2013-10-12 16:22:00,72.0,-99.9,-100.00,West,270,2.0,5.0,-999,0.00,,,0.00,,2013-10-12 21:22:00,
2013-10-12 16:43:00,74.0,-99.9,-100.00,WNW,286,3.0,6.0,-999,0.00,,,0.00,,2013-10-12 21:43:00,
2013-10-12 16:54:00,74.0,-99.9,-100.00,WNW,286,3.0,6.0,-999,0.00,,,0.00,,2013-10-12 21:54:00,
2013-10-12 17:13:00,74.0,-99.9,-100.00,WNW,299,4.0,7.0,-999,0.00,,,0.00,,2013-10-12 22:13:00,
2013-10-12 17:25:00,74.0,-99.9,-100.00,WNW,299,4.0,7.0,-999,0.00,,,0.00,,2013-10-12 22:25:00,
2013-10-12 17:43:00,73.0,-99.9,-100.00,WNW,295,2.0,7.0,-999,0.00,,,0.00,,2013-10-12 22:43:00,
2013-10-12 17:54:00,73.0,-99.9,-100.00,WNW,295,2.0,7.0,-999,0.00,,,0.00,,2013-10-12 22:54:00,
2013-10-12 18:12:00,72.0,-99.9,-100.00,WNW,300,1.0,3.0,-999,0.00,,,0.00,,2013-10-12 23:12:00,
2013-10-12 18:22:00,72.0,-99.9,-100.00,WNW,300,1.0,3.0,-999,0.00,,,0.00,,2013-10-12 23:22:00,
2013-10-12 18:42:00,68.0,-99.9,-100.00,West,266,2.0,4.0,-999,0.00,,,0.00,,2013-10-12 23:42:00,
2013-10-12 18:52:00,68.0,-99.9,-100.00,West,266,2.0,4.0,-999,0.00,,,0.00,,2013-10-12 23:52:00,
2013-10-12 19:12:00,65.0,-99.9,-100.00,West,273,0.0,1.0,-999,0.00,,,0.00,,2013-10-13 00:12:00,
2013-10-12 19:22:00,65.0,-99.9,-100.00,West,273,0.0,1.0,-999,0.00,,,0.00,,2013-10-13 00:22:00,
2013-10-12 19:42:00,63.0,-99.9,-100.00,WSW,251,0.0,1.0,-999,0.00,,,0.00,,2013-10-13 00:42:00,
2013-10-12 19:52:00,63.0,-99.9,-100.00,WSW,251,0.0,1.0,-999,0.00,,,0.00,,2013-10-13 00:52:00,
2013-10-12 20:12:00,59.0,-99.9,-100.00,WSW,253,1.0,1.0,-999,0.00,,,0.00,,2013-10-13 01:12:00,
2013-10-12 20:22:00,59.0,-99.9,-100.00,WSW,253,1.0,1.0,-999,0.00,,,0.00,,2013-10-13 01:22:00,
2013-10-12 20:42:00,58.0,-99.9,-100.00,West,266,1.0,2.0,-999,0.00,,,0.00,,2013-10-13 01:42:00,
2013-10-12 21:12:00,57.0,-99.9,-100.00,West,259,0.0,1.0,-999,0.00,,,0.00,,2013-10-13 02:12:00,
2013-10-12 21:22:00,57.0,-99.9,-100.00,West,259,0.0,1.0,-999,0.00,,,0.00,,2013-10-13 02:22:00,
2013-10-12 21:43:00,57.0,-99.9,-100.00,West,268,1.0,2.0,-999,0.00,,,0.00,,2013-10-13 02:43:00,
2013-10-12 21:52:00,57.0,-99.9,-100.00,West,268,1.0,2.0,-999,0.00,,,0.00,,2013-10-13 02:52:00,
2013-10-12 22:12:00,57.0,-99.9,-100.00,WNW,293,1.0,3.0,-999,0.00,,,0.00,,2013-10-13 03:12:00,
2013-10-12 22:23:00,57.0,-99.9,-100.00,WNW,293,1.0,3.0,-999,0.00,,,0.00,,2013-10-13 03:23:00,
2013-10-12 22:45:00,55.0,-99.9,-100.00,WSW,239,0.0,1.0,-999,0.00,,,0.00,,2013-10-13 03:45:00,
2013-10-12 22:54:00,55.0,-99.9,-100.00,WSW,239,0.0,1.0,-999,0.00,,,0.00,,2013-10-13 03:54:00,
2013-10-12 23:03:00,-999.0,-99.9,-100.00,West,259,1.0,2.0,-999,-99.99,,,-99.99,,2013-10-13 04:03:00,
2013-10-12 23:14:00,55.0,-99.9,-100.00,West,259,1.0,2.0,-999,0.00,,,0.00,,2013-10-13 04:14:00,
2013-10-12 23:24:00,55.0,-99.9,-100.00,West,259,1.0,2.0,-999,0.00,,,0.00,,2013-10-13 04:24:00,
2013-10-12 23:44:00,54.0,-99.9,-100.00,WSW,251,0.0,0.0,-999,0.00,,,0.00,,2013-10-13 04:44:00,
2013-10-12 23:54:00,54.0,-99.9,-100.00,WSW,251,0.0,0.0,-999,0.00,,,0.00,,2013-10-13 04:54:00,